Garrison, West Virginia
Current Conditions -  °F | °C
As of 4:51 PM on Saturday 25 Oct 2014 (Local Time) from KBKW Reporting Station
Overcast Overcast  
Wind Chill: 60°   Ceiling: 3100
Heat Index: 60°   Visibility: 10mi
Dew Point: 43°   Wind: 7mph
Humidity: 53%   Direction: 240°WSW
Pressure: 29.97"   Gusts: NA
Location:  37.9764°N, 81.5271°W
Report Text: KBKW 252051Z AUTO 24006KT 10SM BKN031 OVC044 16/06 A2997 RMK AO2 SLP148 T01560061 56013 TSNO
Loading
Personal Weather Stations






























Interactive Weather Map
Tropical Storm Tracking
New forecast layout! Learn more

10-Day Weather Forecast

Advertisements
Track Severe Weather on mobile